sensor_id;sensor_type;location;lat;lon;timestamp;P1;durP1;ratioP1;P2;durP2;ratioP2
81367;SDS011;70823;50.056;14.398;2024-03-23T00:53:02;4.53;;;3.45;;
81367;SDS011;70823;50.056;14.398;2024-03-23T00:55:27;3.97;;;3.30;;
81367;SDS011;70823;50.056;14.398;2024-03-23T00:57:53;3.97;;;2.90;;
81367;SDS011;70823;50.056;14.398;2024-03-23T01:00:18;4.50;;;3.70;;
81367;SDS011;70823;50.056;14.398;2024-03-23T01:02:43;4.43;;;3.10;;
81367;SDS011;70823;50.056;14.398;2024-03-23T01:05:09;4.55;;;3.10;;
81367;SDS011;70823;50.056;14.398;2024-03-23T01:07:34;3.93;;;3.27;;
81367;SDS011;70823;50.056;14.398;2024-03-23T01:09:59;5.00;;;3.90;;
81367;SDS011;70823;50.056;14.398;2024-03-23T01:12:24;3.93;;;3.30;;
81367;SDS011;70823;50.056;14.398;2024-03-23T01:14:50;4.07;;;3.33;;
81367;SDS011;70823;50.056;14.398;2024-03-23T01:17:15;4.10;;;3.30;;
81367;SDS011;70823;50.056;14.398;2024-03-23T01:19:40;4.77;;;3.30;;
81367;SDS011;70823;50.056;14.398;2024-03-23T01:22:06;3.65;;;2.95;;
81367;SDS011;70823;50.056;14.398;2024-03-23T01:24:32;4.38;;;3.40;;
81367;SDS011;70823;50.056;14.398;2024-03-23T01:26:57;4.57;;;3.40;;
81367;SDS011;70823;50.056;14.398;2024-03-23T01:29:22;5.07;;;3.80;;
81367;SDS011;70823;50.056;14.398;2024-03-23T01:31:48;3.65;;;3.03;;
81367;SDS011;70823;50.056;14.398;2024-03-23T01:34:13;4.30;;;3.50;;
81367;SDS011;70823;50.056;14.398;2024-03-23T01:36:39;4.10;;;3.00;;
81367;SDS011;70823;50.056;14.398;2024-03-23T01:39:04;4.30;;;3.35;;
81367;SDS011;70823;50.056;14.398;2024-03-23T01:41:30;4.80;;;3.17;;
81367;SDS011;70823;50.056;14.398;2024-03-23T01:43:55;4.35;;;3.22;;
81367;SDS011;70823;50.056;14.398;2024-03-23T01:46:21;4.47;;;3.42;;
81367;SDS011;70823;50.056;14.398;2024-03-23T01:48:47;4.22;;;3.28;;
81367;SDS011;70823;50.056;14.398;2024-03-23T01:51:12;4.73;;;2.80;;
81367;SDS011;70823;50.056;14.398;2024-03-23T01:53:38;4.05;;;3.45;;
81367;SDS011;70823;50.056;14.398;2024-03-23T01:56:03;4.57;;;3.50;;
81367;SDS011;70823;50.056;14.398;2024-03-23T01:58:29;5.27;;;3.33;;
81367;SDS011;70823;50.056;14.398;2024-03-23T02:00:54;4.50;;;3.30;;
81367;SDS011;70823;50.056;14.398;2024-03-23T02:05:49;3.70;;;2.83;;
81367;SDS011;70823;50.056;14.398;2024-03-23T02:08:15;4.18;;;3.20;;
81367;SDS011;70823;50.056;14.398;2024-03-23T02:10:45;3.75;;;3.03;;
81367;SDS011;70823;50.056;14.398;2024-03-23T02:13:10;3.90;;;2.88;;
81367;SDS011;70823;50.056;14.398;2024-03-23T02:15:36;4.10;;;3.00;;
81367;SDS011;70823;50.056;14.398;2024-03-23T02:18:01;4.27;;;3.27;;
81367;SDS011;70823;50.056;14.398;2024-03-23T02:20:26;3.90;;;2.80;;
81367;SDS011;70823;50.056;14.398;2024-03-23T02:22:53;4.80;;;3.00;;
81367;SDS011;70823;50.056;14.398;2024-03-23T02:25:18;4.70;;;2.97;;
81367;SDS011;70823;50.056;14.398;2024-03-23T02:27:43;4.65;;;3.20;;
81367;SDS011;70823;50.056;14.398;2024-03-23T02:30:09;3.47;;;2.87;;
81367;SDS011;70823;50.056;14.398;2024-03-23T02:32:34;3.88;;;3.03;;
81367;SDS011;70823;50.056;14.398;2024-03-23T02:34:59;4.30;;;3.27;;
81367;SDS011;70823;50.056;14.398;2024-03-23T02:37:25;3.72;;;2.95;;
81367;SDS011;70823;50.056;14.398;2024-03-23T02:39:50;4.10;;;3.10;;
81367;SDS011;70823;50.056;14.398;2024-03-23T02:42:15;5.63;;;3.33;;
81367;SDS011;70823;50.056;14.398;2024-03-23T02:44:42;5.20;;;3.15;;
81367;SDS011;70823;50.056;14.398;2024-03-23T02:47:08;4.45;;;3.20;;
81367;SDS011;70823;50.056;14.398;2024-03-23T02:49:33;4.88;;;3.03;;
81367;SDS011;70823;50.056;14.398;2024-03-23T02:51:58;4.43;;;3.30;;
81367;SDS011;70823;50.056;14.398;2024-03-23T02:54:24;4.47;;;3.07;;
81367;SDS011;70823;50.056;14.398;2024-03-23T02:56:49;3.87;;;3.17;;
81367;SDS011;70823;50.056;14.398;2024-03-23T02:59:14;3.97;;;3.40;;
81367;SDS011;70823;50.056;14.398;2024-03-23T03:01:40;4.20;;;3.50;;
81367;SDS011;70823;50.056;14.398;2024-03-23T03:04:05;4.70;;;3.08;;
81367;SDS011;70823;50.056;14.398;2024-03-23T03:06:31;4.68;;;3.92;;
81367;SDS011;70823;50.056;14.398;2024-03-23T03:08:56;3.85;;;3.20;;
81367;SDS011;70823;50.056;14.398;2024-03-23T03:11:21;4.83;;;3.27;;
81367;SDS011;70823;50.056;14.398;2024-03-23T03:13:46;4.10;;;3.57;;
81367;SDS011;70823;50.056;14.398;2024-03-23T03:16:12;4.00;;;3.07;;
81367;SDS011;70823;50.056;14.398;2024-03-23T03:18:38;4.40;;;3.33;;
81367;SDS011;70823;50.056;14.398;2024-03-23T03:21:04;4.10;;;3.30;;
81367;SDS011;70823;50.056;14.398;2024-03-23T03:23:30;4.03;;;3.20;;
81367;SDS011;70823;50.056;14.398;2024-03-23T03:25:56;3.55;;;2.95;;
81367;SDS011;70823;50.056;14.398;2024-03-23T03:28:22;4.93;;;3.75;;
81367;SDS011;70823;50.056;14.398;2024-03-23T03:30:47;3.80;;;3.20;;
81367;SDS011;70823;50.056;14.398;2024-03-23T03:33:12;3.97;;;3.17;;
81367;SDS011;70823;50.056;14.398;2024-03-23T03:35:38;4.65;;;3.55;;
81367;SDS011;70823;50.056;14.398;2024-03-23T03:38:04;4.32;;;3.30;;
81367;SDS011;70823;50.056;14.398;2024-03-23T03:40:29;4.43;;;3.13;;
81367;SDS011;70823;50.056;14.398;2024-03-23T03:42:55;4.05;;;3.28;;
81367;SDS011;70823;50.056;14.398;2024-03-23T03:45:20;4.43;;;3.27;;
81367;SDS011;70823;50.056;14.398;2024-03-23T03:47:45;3.77;;;3.20;;
81367;SDS011;70823;50.056;14.398;2024-03-23T03:50:11;4.93;;;3.33;;
81367;SDS011;70823;50.056;14.398;2024-03-23T03:52:36;3.67;;;2.87;;
81367;SDS011;70823;50.056;14.398;2024-03-23T03:55:02;4.23;;;3.13;;
81367;SDS011;70823;50.056;14.398;2024-03-23T03:57:27;3.95;;;3.03;;
81367;SDS011;70823;50.056;14.398;2024-03-23T03:59:53;4.05;;;3.08;;
81367;SDS011;70823;50.056;14.398;2024-03-23T04:02:18;3.90;;;3.10;;
81367;SDS011;70823;50.056;14.398;2024-03-23T04:04:44;3.63;;;2.80;;
81367;SDS011;70823;50.056;14.398;2024-03-23T04:07:09;3.63;;;2.60;;
81367;SDS011;70823;50.056;14.398;2024-03-23T04:09:34;4.23;;;2.90;;
81367;SDS011;70823;50.056;14.398;2024-03-23T04:12:00;4.30;;;3.22;;
81367;SDS011;70823;50.056;14.398;2024-03-23T04:14:25;4.37;;;3.27;;
81367;SDS011;70823;50.056;14.398;2024-03-23T04:16:51;4.15;;;3.28;;
81367;SDS011;70823;50.056;14.398;2024-03-23T04:19:16;4.17;;;3.43;;
81367;SDS011;70823;50.056;14.398;2024-03-23T04:21:41;4.20;;;3.80;;
81367;SDS011;70823;50.056;14.398;2024-03-23T04:24:07;3.80;;;3.05;;
81367;SDS011;70823;50.056;14.398;2024-03-23T04:26:50;3.70;;;2.90;;
81367;SDS011;70823;50.056;14.398;2024-03-23T04:29:16;3.78;;;3.08;;
81367;SDS011;70823;50.056;14.398;2024-03-23T04:31:41;3.90;;;3.20;;
81367;SDS011;70823;50.056;14.398;2024-03-23T04:34:06;4.43;;;3.40;;
81367;SDS011;70823;50.056;14.398;2024-03-23T04:36:31;3.73;;;2.90;;
81367;SDS011;70823;50.056;14.398;2024-03-23T04:38:58;4.50;;;3.50;;
81367;SDS011;70823;50.056;14.398;2024-03-23T04:41:24;4.03;;;2.85;;
81367;SDS011;70823;50.056;14.398;2024-03-23T04:43:50;4.35;;;3.38;;
81367;SDS011;70823;50.056;14.398;2024-03-23T04:46:16;4.57;;;3.53;;
81367;SDS011;70823;50.056;14.398;2024-03-23T04:48:41;4.23;;;3.33;;
81367;SDS011;70823;50.056;14.398;2024-03-23T04:51:06;4.63;;;3.83;;
81367;SDS011;70823;50.056;14.398;2024-03-23T04:53:32;4.67;;;3.13;;
81367;SDS011;70823;50.056;14.398;2024-03-23T04:55:58;3.90;;;3.20;;
81367;SDS011;70823;50.056;14.398;2024-03-23T04:58:27;3.88;;;2.90;;
81367;SDS011;70823;50.056;14.398;2024-03-23T05:00:55;4.23;;;3.20;;
81367;SDS011;70823;50.056;14.398;2024-03-23T05:03:21;4.70;;;3.47;;
81367;SDS011;70823;50.056;14.398;2024-03-23T05:05:47;4.38;;;3.30;;
81367;SDS011;70823;50.056;14.398;2024-03-23T05:08:13;4.45;;;3.05;;
81367;SDS011;70823;50.056;14.398;2024-03-23T05:10:39;4.82;;;3.33;;
81367;SDS011;70823;50.056;14.398;2024-03-23T05:13:04;4.45;;;3.30;;
81367;SDS011;70823;50.056;14.398;2024-03-23T05:15:29;4.47;;;3.40;;
81367;SDS011;70823;50.056;14.398;2024-03-23T05:17:55;4.23;;;3.30;;
81367;SDS011;70823;50.056;14.398;2024-03-23T05:20:20;4.07;;;3.67;;
81367;SDS011;70823;50.056;14.398;2024-03-23T05:22:46;4.75;;;3.33;;
81367;SDS011;70823;50.056;14.398;2024-03-23T05:25:11;3.75;;;3.28;;
81367;SDS011;70823;50.056;14.398;2024-03-23T05:27:37;5.30;;;3.38;;
81367;SDS011;70823;50.056;14.398;2024-03-23T05:30:02;3.60;;;3.00;;
81367;SDS011;70823;50.056;14.398;2024-03-23T05:32:28;4.15;;;3.20;;
81367;SDS011;70823;50.056;14.398;2024-03-23T05:34:54;3.77;;;3.00;;
81367;SDS011;70823;50.056;14.398;2024-03-23T05:37:22;4.32;;;2.97;;
81367;SDS011;70823;50.056;14.398;2024-03-23T05:39:47;4.53;;;3.17;;
81367;SDS011;70823;50.056;14.398;2024-03-23T05:42:15;3.88;;;3.25;;
81367;SDS011;70823;50.056;14.398;2024-03-23T05:44:42;4.25;;;3.17;;
81367;SDS011;70823;50.056;14.398;2024-03-23T05:47:08;4.10;;;2.90;;
81367;SDS011;70823;50.056;14.398;2024-03-23T05:49:33;4.40;;;3.73;;
81367;SDS011;70823;50.056;14.398;2024-03-23T05:51:59;4.27;;;3.37;;
81367;SDS011;70823;50.056;14.398;2024-03-23T05:54:27;4.35;;;3.08;;
81367;SDS011;70823;50.056;14.398;2024-03-23T05:56:54;3.87;;;3.13;;
81367;SDS011;70823;50.056;14.398;2024-03-23T05:59:20;4.03;;;3.00;;
81367;SDS011;70823;50.056;14.398;2024-03-23T06:01:46;4.18;;;3.15;;
81367;SDS011;70823;50.056;14.398;2024-03-23T06:04:11;3.83;;;3.28;;
81367;SDS011;70823;50.056;14.398;2024-03-23T06:06:39;4.05;;;3.22;;
81367;SDS011;70823;50.056;14.398;2024-03-23T06:09:04;4.13;;;3.55;;
81367;SDS011;70823;50.056;14.398;2024-03-23T06:11:30;4.00;;;3.55;;
81367;SDS011;70823;50.056;14.398;2024-03-23T06:13:55;3.83;;;2.80;;
81367;SDS011;70823;50.056;14.398;2024-03-23T06:16:20;4.00;;;3.08;;
81367;SDS011;70823;50.056;14.398;2024-03-23T06:18:48;5.07;;;3.80;;
81367;SDS011;70823;50.056;14.398;2024-03-23T06:21:14;4.13;;;3.40;;
81367;SDS011;70823;50.056;14.398;2024-03-23T06:23:40;4.70;;;3.70;;
81367;SDS011;70823;50.056;14.398;2024-03-23T06:26:06;4.78;;;3.40;;
81367;SDS011;70823;50.056;14.398;2024-03-23T06:28:31;3.30;;;2.78;;
81367;SDS011;70823;50.056;14.398;2024-03-23T06:30:57;3.97;;;2.97;;
81367;SDS011;70823;50.056;14.398;2024-03-23T06:33:22;3.60;;;2.83;;
81367;SDS011;70823;50.056;14.398;2024-03-23T06:35:51;4.05;;;3.25;;
81367;SDS011;70823;50.056;14.398;2024-03-23T06:38:17;4.40;;;3.25;;
81367;SDS011;70823;50.056;14.398;2024-03-23T06:40:42;3.95;;;2.70;;
81367;SDS011;70823;50.056;14.398;2024-03-23T06:43:12;3.75;;;3.08;;
81367;SDS011;70823;50.056;14.398;2024-03-23T06:45:38;4.18;;;2.95;;
81367;SDS011;70823;50.056;14.398;2024-03-23T06:48:03;3.88;;;3.20;;
81367;SDS011;70823;50.056;14.398;2024-03-23T06:50:29;4.15;;;2.75;;
81367;SDS011;70823;50.056;14.398;2024-03-23T06:52:54;3.53;;;2.80;;
81367;SDS011;70823;50.056;14.398;2024-03-23T06:55:19;4.00;;;2.80;;
81367;SDS011;70823;50.056;14.398;2024-03-23T06:57:45;4.33;;;3.30;;
81367;SDS011;70823;50.056;14.398;2024-03-23T07:00:10;3.73;;;2.93;;
81367;SDS011;70823;50.056;14.398;2024-03-23T07:02:36;3.90;;;3.17;;
81367;SDS011;70823;50.056;14.398;2024-03-23T07:05:02;4.57;;;3.47;;
81367;SDS011;70823;50.056;14.398;2024-03-23T07:07:28;4.18;;;3.50;;
81367;SDS011;70823;50.056;14.398;2024-03-23T07:09:55;3.90;;;2.90;;
81367;SDS011;70823;50.056;14.398;2024-03-23T07:12:20;4.05;;;3.30;;
81367;SDS011;70823;50.056;14.398;2024-03-23T07:14:46;3.85;;;2.85;;
81367;SDS011;70823;50.056;14.398;2024-03-23T07:17:11;4.37;;;3.43;;
81367;SDS011;70823;50.056;14.398;2024-03-23T07:19:36;4.00;;;3.20;;
81367;SDS011;70823;50.056;14.398;2024-03-23T07:22:02;4.68;;;3.15;;
81367;SDS011;70823;50.056;14.398;2024-03-23T07:24:27;4.33;;;3.27;;
81367;SDS011;70823;50.056;14.398;2024-03-23T07:26:52;3.88;;;3.08;;
81367;SDS011;70823;50.056;14.398;2024-03-23T07:29:19;4.80;;;3.20;;
81367;SDS011;70823;50.056;14.398;2024-03-23T07:31:44;4.25;;;3.20;;
81367;SDS011;70823;50.056;14.398;2024-03-23T07:34:10;4.10;;;3.50;;
81367;SDS011;70823;50.056;14.398;2024-03-23T07:36:35;4.23;;;3.30;;
81367;SDS011;70823;50.056;14.398;2024-03-23T07:39:00;4.72;;;3.10;;
81367;SDS011;70823;50.056;14.398;2024-03-23T07:41:25;4.50;;;3.30;;
81367;SDS011;70823;50.056;14.398;2024-03-23T07:43:53;4.50;;;3.08;;
81367;SDS011;70823;50.056;14.398;2024-03-23T07:46:18;5.18;;;3.45;;
81367;SDS011;70823;50.056;14.398;2024-03-23T07:48:45;3.97;;;3.33;;
81367;SDS011;70823;50.056;14.398;2024-03-23T07:51:13;5.20;;;3.83;;
81367;SDS011;70823;50.056;14.398;2024-03-23T07:53:42;4.45;;;3.55;;
81367;SDS011;70823;50.056;14.398;2024-03-23T07:56:09;4.05;;;3.00;;
81367;SDS011;70823;50.056;14.398;2024-03-23T07:58:40;3.95;;;3.08;;
81367;SDS011;70823;50.056;14.398;2024-03-23T08:01:06;4.83;;;3.50;;
81367;SDS011;70823;50.056;14.398;2024-03-23T08:03:38;4.20;;;3.70;;
81367;SDS011;70823;50.056;14.398;2024-03-23T08:08:35;4.72;;;3.17;;
81367;SDS011;70823;50.056;14.398;2024-03-23T08:11:00;4.25;;;3.35;;
81367;SDS011;70823;50.056;14.398;2024-03-23T08:13:26;3.47;;;3.00;;
81367;SDS011;70823;50.056;14.398;2024-03-23T08:15:59;4.97;;;3.13;;
81367;SDS011;70823;50.056;14.398;2024-03-23T08:18:26;3.47;;;2.92;;
81367;SDS011;70823;50.056;14.398;2024-03-23T08:21:04;4.43;;;3.50;;
81367;SDS011;70823;50.056;14.398;2024-03-23T08:23:31;4.22;;;3.00;;
81367;SDS011;70823;50.056;14.398;2024-03-23T08:26:04;3.95;;;2.88;;
81367;SDS011;70823;50.056;14.398;2024-03-23T08:28:33;4.50;;;3.60;;
81367;SDS011;70823;50.056;14.398;2024-03-23T08:31:03;3.75;;;3.08;;
81367;SDS011;70823;50.056;14.398;2024-03-23T08:33:30;4.10;;;3.40;;
81367;SDS011;70823;50.056;14.398;2024-03-23T08:35:56;4.28;;;3.28;;
81367;SDS011;70823;50.056;14.398;2024-03-23T08:38:25;3.83;;;3.03;;
81367;SDS011;70823;50.056;14.398;2024-03-23T08:43:23;3.70;;;3.17;;
81367;SDS011;70823;50.056;14.398;2024-03-23T08:45:48;4.03;;;3.30;;
81367;SDS011;70823;50.056;14.398;2024-03-23T08:48:14;3.70;;;3.13;;
81367;SDS011;70823;50.056;14.398;2024-03-23T08:50:39;3.53;;;2.97;;
81367;SDS011;70823;50.056;14.398;2024-03-23T08:53:04;3.50;;;2.90;;
81367;SDS011;70823;50.056;14.398;2024-03-23T08:55:29;5.35;;;3.55;;
81367;SDS011;70823;50.056;14.398;2024-03-23T08:57:55;4.53;;;3.15;;
81367;SDS011;70823;50.056;14.398;2024-03-23T09:00:21;4.22;;;3.45;;
81367;SDS011;70823;50.056;14.398;2024-03-23T09:02:49;3.97;;;3.05;;
81367;SDS011;70823;50.056;14.398;2024-03-23T09:05:15;4.80;;;3.15;;
81367;SDS011;70823;50.056;14.398;2024-03-23T09:07:40;3.33;;;2.40;;
81367;SDS011;70823;50.056;14.398;2024-03-23T09:10:06;3.20;;;2.60;;
81367;SDS011;70823;50.056;14.398;2024-03-23T09:12:32;3.95;;;2.78;;
81367;SDS011;70823;50.056;14.398;2024-03-23T09:14:57;4.13;;;2.83;;
81367;SDS011;70823;50.056;14.398;2024-03-23T09:17:23;4.67;;;2.67;;
81367;SDS011;70823;50.056;14.398;2024-03-23T09:19:48;4.00;;;2.80;;
81367;SDS011;70823;50.056;14.398;2024-03-23T09:22:13;4.47;;;3.17;;
81367;SDS011;70823;50.056;14.398;2024-03-23T09:24:39;4.25;;;2.80;;
81367;SDS011;70823;50.056;14.398;2024-03-23T09:27:05;4.20;;;3.10;;
81367;SDS011;70823;50.056;14.398;2024-03-23T09:29:30;3.97;;;2.93;;
81367;SDS011;70823;50.056;14.398;2024-03-23T09:31:55;3.77;;;3.10;;
81367;SDS011;70823;50.056;14.398;2024-03-23T09:34:20;4.80;;;3.27;;
81367;SDS011;70823;50.056;14.398;2024-03-23T09:36:46;3.50;;;3.03;;
81367;SDS011;70823;50.056;14.398;2024-03-23T09:39:12;4.00;;;3.00;;
81367;SDS011;70823;50.056;14.398;2024-03-23T09:41:38;4.07;;;3.15;;
81367;SDS011;70823;50.056;14.398;2024-03-23T09:44:04;3.83;;;2.73;;
81367;SDS011;70823;50.056;14.398;2024-03-23T09:46:30;3.47;;;2.60;;
81367;SDS011;70823;50.056;14.398;2024-03-23T09:48:59;3.80;;;3.00;;
81367;SDS011;70823;50.056;14.398;2024-03-23T09:51:24;3.47;;;2.40;;
81367;SDS011;70823;50.056;14.398;2024-03-23T09:53:49;3.60;;;2.60;;
81367;SDS011;70823;50.056;14.398;2024-03-23T09:56:15;3.15;;;2.55;;
81367;SDS011;70823;50.056;14.398;2024-03-23T09:58:42;4.95;;;2.65;;
81367;SDS011;70823;50.056;14.398;2024-03-23T10:01:07;4.20;;;3.20;;
81367;SDS011;70823;50.056;14.398;2024-03-23T10:03:41;4.47;;;3.38;;
81367;SDS011;70823;50.056;14.398;2024-03-23T10:06:07;5.85;;;3.75;;
81367;SDS011;70823;50.056;14.398;2024-03-23T10:08:33;3.78;;;3.10;;
81367;SDS011;70823;50.056;14.398;2024-03-23T10:10:58;4.30;;;3.33;;
81367;SDS011;70823;50.056;14.398;2024-03-23T10:13:37;4.10;;;3.25;;
81367;SDS011;70823;50.056;14.398;2024-03-23T10:16:06;4.25;;;3.35;;
81367;SDS011;70823;50.056;14.398;2024-03-23T10:18:32;4.20;;;2.67;;
81367;SDS011;70823;50.056;14.398;2024-03-23T10:23:30;4.05;;;3.08;;
81367;SDS011;70823;50.056;14.398;2024-03-23T10:26:06;4.50;;;3.42;;
81367;SDS011;70823;50.056;14.398;2024-03-23T10:28:50;3.78;;;2.90;;
81367;SDS011;70823;50.056;14.398;2024-03-23T10:31:30;4.88;;;3.30;;
81367;SDS011;70823;50.056;14.398;2024-03-23T10:33:56;4.50;;;3.33;;
81367;SDS011;70823;50.056;14.398;2024-03-23T10:36:21;4.25;;;3.10;;
81367;SDS011;70823;50.056;14.398;2024-03-23T10:38:49;4.00;;;3.22;;
81367;SDS011;70823;50.056;14.398;2024-03-23T10:41:15;4.38;;;3.25;;
81367;SDS011;70823;50.056;14.398;2024-03-23T10:43:40;3.92;;;3.03;;
81367;SDS011;70823;50.056;14.398;2024-03-23T10:46:07;4.88;;;3.58;;
81367;SDS011;70823;50.056;14.398;2024-03-23T10:48:34;3.72;;;3.10;;
81367;SDS011;70823;50.056;14.398;2024-03-23T10:50:59;3.88;;;2.80;;
81367;SDS011;70823;50.056;14.398;2024-03-23T10:53:25;5.07;;;3.58;;
81367;SDS011;70823;50.056;14.398;2024-03-23T10:55:52;3.60;;;2.63;;
81367;SDS011;70823;50.056;14.398;2024-03-23T10:58:28;3.92;;;3.22;;
81367;SDS011;70823;50.056;14.398;2024-03-23T11:00:56;4.10;;;3.30;;
81367;SDS011;70823;50.056;14.398;2024-03-23T11:03:35;3.83;;;3.13;;
81367;SDS011;70823;50.056;14.398;2024-03-23T11:06:02;3.70;;;2.90;;
81367;SDS011;70823;50.056;14.398;2024-03-23T11:08:37;4.53;;;2.80;;
81367;SDS011;70823;50.056;14.398;2024-03-23T11:11:19;4.07;;;3.28;;
81367;SDS011;70823;50.056;14.398;2024-03-23T11:13:49;3.72;;;3.05;;
81367;SDS011;70823;50.056;14.398;2024-03-23T11:16:16;4.45;;;3.05;;
81367;SDS011;70823;50.056;14.398;2024-03-23T11:18:42;4.15;;;3.00;;
81367;SDS011;70823;50.056;14.398;2024-03-23T11:21:08;3.72;;;3.03;;
81367;SDS011;70823;50.056;14.398;2024-03-23T11:23:34;3.35;;;2.53;;
81367;SDS011;70823;50.056;14.398;2024-03-23T11:25:59;3.55;;;2.83;;
81367;SDS011;70823;50.056;14.398;2024-03-23T11:28:25;3.30;;;2.60;;
81367;SDS011;70823;50.056;14.398;2024-03-23T11:30:50;3.45;;;2.60;;
81367;SDS011;70823;50.056;14.398;2024-03-23T11:33:15;3.60;;;2.60;;
81367;SDS011;70823;50.056;14.398;2024-03-23T11:35:41;3.43;;;2.90;;
81367;SDS011;70823;50.056;14.398;2024-03-23T11:38:07;4.47;;;2.90;;
81367;SDS011;70823;50.056;14.398;2024-03-23T11:40:33;3.63;;;2.40;;
81367;SDS011;70823;50.056;14.398;2024-03-23T11:43:00;3.90;;;2.85;;
81367;SDS011;70823;50.056;14.398;2024-03-23T11:45:33;3.60;;;3.08;;
81367;SDS011;70823;50.056;14.398;2024-03-23T11:48:13;3.45;;;2.75;;
81367;SDS011;70823;50.056;14.398;2024-03-23T11:50:40;3.30;;;2.50;;
81367;SDS011;70823;50.056;14.398;2024-03-23T11:55:38;2.50;;;1.80;;
81367;SDS011;70823;50.056;14.398;2024-03-23T11:58:07;2.72;;;2.10;;
81367;SDS011;70823;50.056;14.398;2024-03-23T12:00:33;4.00;;;3.00;;
81367;SDS011;70823;50.056;14.398;2024-03-23T12:03:02;3.10;;;2.50;;
81367;SDS011;70823;50.056;14.398;2024-03-23T12:05:27;3.40;;;2.78;;
81367;SDS011;70823;50.056;14.398;2024-03-23T12:07:53;2.90;;;2.50;;
81367;SDS011;70823;50.056;14.398;2024-03-23T12:10:21;3.20;;;2.40;;
81367;SDS011;70823;50.056;14.398;2024-03-23T12:12:58;2.88;;;2.03;;
81367;SDS011;70823;50.056;14.398;2024-03-23T12:15:26;3.67;;;2.50;;
81367;SDS011;70823;50.056;14.398;2024-03-23T12:17:52;2.58;;;1.77;;
81367;SDS011;70823;50.056;14.398;2024-03-23T12:20:17;2.72;;;2.10;;
81367;SDS011;70823;50.056;14.398;2024-03-23T12:22:42;3.03;;;1.87;;
81367;SDS011;70823;50.056;14.398;2024-03-23T12:25:10;2.78;;;2.00;;
81367;SDS011;70823;50.056;14.398;2024-03-23T12:27:35;2.83;;;1.60;;
81367;SDS011;70823;50.056;14.398;2024-03-23T12:30:00;2.77;;;2.27;;
81367;SDS011;70823;50.056;14.398;2024-03-23T12:32:27;2.78;;;2.00;;
81367;SDS011;70823;50.056;14.398;2024-03-23T12:34:52;3.70;;;1.90;;
81367;SDS011;70823;50.056;14.398;2024-03-23T12:37:17;3.17;;;2.00;;
81367;SDS011;70823;50.056;14.398;2024-03-23T12:39:43;2.80;;;2.03;;
81367;SDS011;70823;50.056;14.398;2024-03-23T12:42:08;3.57;;;1.97;;
81367;SDS011;70823;50.056;14.398;2024-03-23T12:44:34;2.73;;;2.37;;
81367;SDS011;70823;50.056;14.398;2024-03-23T12:46:59;2.47;;;1.70;;
81367;SDS011;70823;50.056;14.398;2024-03-23T12:49:24;2.20;;;1.60;;
81367;SDS011;70823;50.056;14.398;2024-03-23T12:51:53;2.40;;;1.70;;
81367;SDS011;70823;50.056;14.398;2024-03-23T12:54:24;2.13;;;1.67;;
81367;SDS011;70823;50.056;14.398;2024-03-23T12:56:50;2.30;;;1.70;;
81367;SDS011;70823;50.056;14.398;2024-03-23T12:59:15;2.23;;;1.80;;
81367;SDS011;70823;50.056;14.398;2024-03-23T13:01:41;3.08;;;1.80;;
81367;SDS011;70823;50.056;14.398;2024-03-23T13:04:06;2.20;;;1.73;;
81367;SDS011;70823;50.056;14.398;2024-03-23T13:06:32;2.40;;;1.80;;
81367;SDS011;70823;50.056;14.398;2024-03-23T13:08:59;2.15;;;1.85;;
81367;SDS011;70823;50.056;14.398;2024-03-23T13:11:28;2.20;;;1.60;;
81367;SDS011;70823;50.056;14.398;2024-03-23T13:13:53;2.13;;;1.67;;
81367;SDS011;70823;50.056;14.398;2024-03-23T13:16:18;1.90;;;1.60;;
81367;SDS011;70823;50.056;14.398;2024-03-23T13:18:44;2.00;;;1.67;;
81367;SDS011;70823;50.056;14.398;2024-03-23T13:21:09;2.00;;;1.40;;
81367;SDS011;70823;50.056;14.398;2024-03-23T13:23:34;2.17;;;1.43;;
81367;SDS011;70823;50.056;14.398;2024-03-23T13:26:00;2.30;;;1.67;;
81367;SDS011;70823;50.056;14.398;2024-03-23T13:28:26;2.25;;;1.70;;
81367;SDS011;70823;50.056;14.398;2024-03-23T13:30:55;1.80;;;1.50;;
81367;SDS011;70823;50.056;14.398;2024-03-23T13:33:22;2.03;;;1.83;;
81367;SDS011;70823;50.056;14.398;2024-03-23T13:35:54;1.92;;;1.60;;
81367;SDS011;70823;50.056;14.398;2024-03-23T13:38:23;1.85;;;1.50;;
81367;SDS011;70823;50.056;14.398;2024-03-23T13:40:58;1.65;;;1.50;;
81367;SDS011;70823;50.056;14.398;2024-03-23T13:43:25;1.60;;;1.27;;
81367;SDS011;70823;50.056;14.398;2024-03-23T13:45:57;1.58;;;1.48;;
81367;SDS011;70823;50.056;14.398;2024-03-23T13:48:23;1.95;;;1.60;;
81367;SDS011;70823;50.056;14.398;2024-03-23T13:53:24;1.80;;;1.48;;
81367;SDS011;70823;50.056;14.398;2024-03-23T13:55:49;2.10;;;1.43;;
81367;SDS011;70823;50.056;14.398;2024-03-23T13:58:15;1.87;;;1.40;;
81367;SDS011;70823;50.056;14.398;2024-03-23T14:00:40;2.38;;;1.70;;
81367;SDS011;70823;50.056;14.398;2024-03-23T14:03:07;1.85;;;1.25;;
81367;SDS011;70823;50.056;14.398;2024-03-23T14:05:33;1.73;;;1.30;;
81367;SDS011;70823;50.056;14.398;2024-03-23T14:07:58;2.27;;;1.50;;
81367;SDS011;70823;50.056;14.398;2024-03-23T14:10:23;2.17;;;1.40;;
81367;SDS011;70823;50.056;14.398;2024-03-23T14:12:49;2.03;;;1.60;;
81367;SDS011;70823;50.056;14.398;2024-03-23T14:15:14;1.63;;;1.37;;
81367;SDS011;70823;50.056;14.398;2024-03-23T14:17:39;1.40;;;1.30;;
81367;SDS011;70823;50.056;14.398;2024-03-23T14:20:05;2.05;;;1.60;;
81367;SDS011;70823;50.056;14.398;2024-03-23T14:22:31;1.85;;;1.30;;
81367;SDS011;70823;50.056;14.398;2024-03-23T14:24:57;2.22;;;1.50;;
81367;SDS011;70823;50.056;14.398;2024-03-23T14:27:22;1.77;;;1.52;;
81367;SDS011;70823;50.056;14.398;2024-03-23T14:29:48;2.03;;;1.73;;
81367;SDS011;70823;50.056;14.398;2024-03-23T14:32:13;1.83;;;1.35;;
81367;SDS011;70823;50.056;14.398;2024-03-23T14:34:39;2.17;;;1.42;;
81367;SDS011;70823;50.056;14.398;2024-03-23T14:37:05;2.55;;;1.40;;
81367;SDS011;70823;50.056;14.398;2024-03-23T14:39:31;1.70;;;1.25;;
81367;SDS011;70823;50.056;14.398;2024-03-23T14:41:56;1.92;;;1.25;;
81367;SDS011;70823;50.056;14.398;2024-03-23T14:44:22;3.22;;;1.42;;
81367;SDS011;70823;50.056;14.398;2024-03-23T14:46:47;1.70;;;1.37;;
81367;SDS011;70823;50.056;14.398;2024-03-23T14:49:16;2.28;;;2.08;;
81367;SDS011;70823;50.056;14.398;2024-03-23T14:51:44;2.33;;;1.48;;
81367;SDS011;70823;50.056;14.398;2024-03-23T14:54:10;1.80;;;1.40;;
81367;SDS011;70823;50.056;14.398;2024-03-23T14:56:36;1.90;;;1.30;;
81367;SDS011;70823;50.056;14.398;2024-03-23T14:59:02;1.83;;;1.40;;
81367;SDS011;70823;50.056;14.398;2024-03-23T15:01:27;2.17;;;1.45;;
81367;SDS011;70823;50.056;14.398;2024-03-23T15:03:53;1.07;;;1.07;;
81367;SDS011;70823;50.056;14.398;2024-03-23T15:06:18;1.60;;;1.23;;
81367;SDS011;70823;50.056;14.398;2024-03-23T15:08:44;1.85;;;1.10;;
81367;SDS011;70823;50.056;14.398;2024-03-23T15:11:09;1.58;;;1.40;;
81367;SDS011;70823;50.056;14.398;2024-03-23T15:13:35;1.63;;;1.20;;
81367;SDS011;70823;50.056;14.398;2024-03-23T15:16:01;1.38;;;1.17;;
81367;SDS011;70823;50.056;14.398;2024-03-23T15:18:28;1.77;;;1.30;;
81367;SDS011;70823;50.056;14.398;2024-03-23T15:20:55;2.65;;;1.30;;
81367;SDS011;70823;50.056;14.398;2024-03-23T15:23:21;1.75;;;1.20;;
81367;SDS011;70823;50.056;14.398;2024-03-23T15:25:53;1.33;;;1.23;;
81367;SDS011;70823;50.056;14.398;2024-03-23T15:28:18;1.60;;;1.40;;
81367;SDS011;70823;50.056;14.398;2024-03-23T15:30:44;1.70;;;1.33;;
81367;SDS011;70823;50.056;14.398;2024-03-23T15:33:09;5.23;;;1.83;;
81367;SDS011;70823;50.056;14.398;2024-03-23T15:35:34;1.40;;;1.13;;